KTYR - Tyler, Texas, USA
Distance from station: WNW 10mi, 17km
Updated: Mon, 25-Jan-2021 4:53pm CST
Clear
Clear
 Wind from WSW
Wind: WSW 10 mph , 17 km/h
Temperature: 68°F , 20°C
Dew Point: 41°F , 5°C
Humidity: 38%
Barometer: 29.71 inHg , 1006.1 hPa
Clouds: Clear
Visibility: 10 miles , 16 km
2021/01/25 22:53 KTYR 252253Z 25009KT 10SM CLR 20/05 A2971 RMK AO2 SLP053 T02000050
KRFI - Henderson Rusk C, Texas, USA
Distance from station: ESE 25mi, 40km
Updated: Mon, 25-Jan-2021 5:35pm CST
Partly Cloudy
Partly Cloudy
 Wind from calm
Wind: Calm
Temperature: 64°F , 18°C
Dew Point: 45°F , 7°C
Humidity: 49%
Barometer: 29.74 inHg , 1007.1 hPa
Clouds: Partly Cloudy
Visibility: 10 miles , 16 km
Cloud details: Partly Cloudy 7500 ft
2021/01/25 23:35 KRFI 252335Z AUTO 00000KT 10SM SCT075 18/07 A2974 RMK AO2 T01820074
 
KJSO - Jacksonville, Texas, USA
Distance from station: S 30mi, 48km
Updated: Mon, 25-Jan-2021 5:35pm CST
Partly Cloudy
Partly Cloudy
 Wind from SW
Wind: SW 3 mph , 6 km/h
Temperature: 64°F , 18°C
Dew Point: 43°F , 6°C
Humidity: 46%
Barometer: 29.75 inHg , 1007.5 hPa
Clouds: Partly Cloudy
Visibility: 10 miles , 16 km
Cloud details: Partly Cloudy 7000 ft
2021/01/25 23:35 KJSO 252335Z AUTO 22003KT 10SM SCT070 18/06 A2975 RMK AO2 T01880059
KGGG - Longview, Texas, USA
Distance from station: ENE 31mi, 50km
Updated: Mon, 25-Jan-2021 4:53pm CST
Few Clouds
Few Clouds
 Wind from SW
Wind: SW 13 mph , 20 km/h
Temperature: 66°F , 19°C
Dew Point: 45°F , 7°C
Humidity: 46%
Barometer: 29.69 inHg , 1005.4 hPa
Clouds: Few Clouds
Visibility: 10 miles , 16 km
Cloud details: Few Clouds 7000 ft
2021/01/25 22:53 KGGG 252253Z 23011KT 10SM FEW070 19/07 A2969 RMK AO2 SLP051 T01940067
 
KJXI - Gilmer Muni, Texas, USA
Distance from station: NNE 33mi, 53km
Updated: Mon, 25-Jan-2021 5:35pm CST
Clear
Clear
 Wind from WSW
Wind: WSW 3 mph , 6 km/h
Temperature: 64°F , 18°C
Dew Point: 45°F , 7°C
Humidity: 49%
Barometer: 29.71 inHg , 1006.1 hPa
Clouds: Clear
Visibility: 10 miles , 16 km
2021/01/25 23:35 KJXI 252335Z AUTO 24003KT 10SM CLR 18/07 A2971 RMK AO2 T01780066
KJDD - Mineola/Quitman, Texas, USA
Distance from station: NNW 35mi, 56km
Updated: Mon, 25-Jan-2021 5:35pm CST
Clear
Clear
 Wind from WSW
Wind: WSW 6 mph , 9 km/h
Temperature: 64°F , 18°C
Dew Point: 39°F , 4°C
Humidity: 40%
Barometer: 29.71 inHg , 1006.1 hPa
Clouds: Clear
Visibility: 10 miles , 16 km
2021/01/25 23:35 KJDD 252335Z AUTO 24005KT 10SM CLR 18/04 A2971 RMK AO2
 
KF44 - Athens, Texas, USA
Distance from station: WSW 36mi, 57km
Updated: Mon, 25-Jan-2021 5:35pm CST
Clear
Clear
 Wind from calm
Wind: Calm
Temperature: 64°F , 18°C
Dew Point: 37°F , 3°C
Humidity: 37%
Barometer: 29.72 inHg , 1006.4 hPa
Clouds: Clear
Visibility: 10 miles , 16 km
2021/01/25 23:35 KF44 252335Z AUTO 00000KT 10SM CLR 18/03 A2972 RMK AO2
KPSN - Palestine Muni, Texas, USA
Distance from station: SW 44mi, 71km
Updated: Mon, 25-Jan-2021 5:35pm CST
Clear
Clear
 Wind from WSW
Wind: WSW 3 mph , 6 km/h
Temperature: 64°F , 18°C
Dew Point: 43°F , 6°C
Humidity: 46%
Barometer: 29.75 inHg , 1007.5 hPa
Clouds: Clear
Visibility: 10 miles , 16 km
2021/01/25 23:35 KPSN 252335Z AUTO 25003KT 10SM CLR 18/06 A2975 RMK AO2 T01870065
 
KASL - Marshall, Texas, USA
Distance from station: ENE 57mi, 92km
Updated: Mon, 25-Jan-2021 5:35pm CST
Clear
Clear
 Wind from WSW
Wind: WSW 3 mph , 6 km/h
Temperature: 64°F , 18°C
Dew Point: 43°F , 6°C
Humidity: 46%
Barometer: 29.72 inHg , 1006.4 hPa
Clouds: Clear
Visibility: 10 miles , 16 km
2021/01/25 23:35 KASL 252335Z AUTO 24003KT 10SM CLR 18/06 A2972 RMK AO1 T01830064
KOSA - Mount Pleasant, Texas, USA
Distance from station: NNE 58mi, 93km
Updated: Mon, 25-Jan-2021 5:35pm CST
Clear
Clear
 Wind from WSW
Wind: WSW 6 mph , 9 km/h
Temperature: 64°F , 18°C
Dew Point: 45°F , 7°C
Humidity: 49%
Barometer: 29.72 inHg , 1006.4 hPa
Clouds: Clear
Visibility: 4 miles , 6 km
2021/01/25 23:35 KOSA 252335Z AUTO 25005KT 4SM CLR 18/07 A2972 RMK AO1 T01770070
 
KOCH - Nacogdoches, Texas, USA
Distance from station: SSE 59mi, 95km
Updated: Mon, 25-Jan-2021 4:56pm CST
Overcast
Overcast
 Wind from WNW
Wind: WNW 3 mph , 6 km/h
Temperature: 70°F , 21°C
Dew Point: 46°F , 8°C
Humidity: 43%
Barometer: 29.74 inHg , 1007.1 hPa
Clouds: Overcast
Visibility: 10 miles , 16 km
Cloud details: Overcast 5500 ft
2021/01/25 22:56 KOCH 252256Z AUTO 29003KT 10SM OVC055 21/08 A2974 RMK AO2 SLP071 T02060083
KSLR - Sulphur Springs, Texas, USA
Distance from station: NNW 64mi, 103km
Updated: Mon, 25-Jan-2021 5:35pm CST
Clear
Clear
 Wind from WSW
Wind: WSW 6 mph , 9 km/h
Temperature: 63°F , 17°C
Dew Point: 43°F , 6°C
Humidity: 49%
Barometer: 29.72 inHg , 1006.4 hPa
Clouds: Clear
Visibility: 10 miles , 16 km
2021/01/25 23:35 KSLR 252335Z AUTO 24005KT 10SM CLR 17/06 A2972 RMK AO2 T01740060
 
KTRL - Terrell, Texas, USA
Distance from station: WNW 66mi, 107km
Updated: Mon, 25-Jan-2021 4:53pm CST
Clear
Clear
 Wind from SW
Wind: SW 12 mph , 19 km/h
Temperature: 66°F , 19°C
Dew Point: 37°F , 3°C
Humidity: 35%
Barometer: 29.70 inHg , 1005.8 hPa
Clouds: Clear
Visibility: 10 miles , 16 km
2021/01/25 22:53 KTRL 252253Z AUTO 23010KT 10SM CLR 19/03 A2970 RMK AO2 SLP052 T01890033
KCRS - Corsicana, Texas, USA
Distance from station: WSW 70mi, 113km
Updated: Mon, 25-Jan-2021 4:53pm CST
Clear
Clear
 Wind from WSW
Wind: WSW 12 mph , 19 km/h
Temperature: 68°F , 20°C
Dew Point: 39°F , 4°C
Humidity: 35%
Barometer: 29.73 inHg , 1006.8 hPa
Clouds: Clear
Visibility: 10 miles , 16 km
2021/01/25 22:53 KCRS 252253Z AUTO 25010KT 10SM CLR 20/04 A2973 RMK AO2 SLP064 T02000039
 
KGVT - Greenville/Major, Texas, USA
Distance from station: NW 72mi, 115km
Updated: Tue, 19-Jan-2021 9:30am CST
NOT Current
Overcast
Overcast
 Wind from N
Wind: N 8 mph , 13 km/h
Temperature: 52°F , 11°C
Dew Point: 39°F , 4°C
Humidity: 62%
Barometer: 30.31 inHg , 1026.4 hPa
Clouds: Overcast
Visibility: 10 miles , 16 km
Cloud details: Overcast 6000 ft
2021/01/19 15:30 KGVT 191530Z AUTO 36007KT 10SM OVC060 11/04 A3031 RMK AO2

Metar display script from Saratoga-Weather.org